sensor_id;sensor_type;location;lat;lon;timestamp;P1;durP1;ratioP1;P2;durP2;ratioP2
62724;SDS011;49026;52.600;4.694;2023-06-22T00:01:11;83.40;;;36.10;;
62724;SDS011;49026;52.600;4.694;2023-06-22T00:03:36;85.53;;;37.10;;
62724;SDS011;49026;52.600;4.694;2023-06-22T00:06:04;79.45;;;32.47;;
62724;SDS011;49026;52.600;4.694;2023-06-22T00:10:59;69.20;;;31.42;;
62724;SDS011;49026;52.600;4.694;2023-06-22T00:13:24;66.40;;;30.73;;
62724;SDS011;49026;52.600;4.694;2023-06-22T00:15:52;76.30;;;34.17;;
62724;SDS011;49026;52.600;4.694;2023-06-22T00:18:17;79.30;;;33.55;;
62724;SDS011;49026;52.600;4.694;2023-06-22T00:20:45;74.75;;;34.60;;
62724;SDS011;49026;52.600;4.694;2023-06-22T00:23:11;78.60;;;32.88;;
62724;SDS011;49026;52.600;4.694;2023-06-22T00:25:41;83.25;;;34.22;;
62724;SDS011;49026;52.600;4.694;2023-06-22T00:28:07;87.47;;;35.08;;
62724;SDS011;49026;52.600;4.694;2023-06-22T00:30:33;81.80;;;32.17;;
62724;SDS011;49026;52.600;4.694;2023-06-22T00:33:00;83.80;;;34.83;;
62724;SDS011;49026;52.600;4.694;2023-06-22T00:35:26;83.47;;;31.85;;
62724;SDS011;49026;52.600;4.694;2023-06-22T00:38:03;95.82;;;35.75;;
62724;SDS011;49026;52.600;4.694;2023-06-22T00:40:32;93.68;;;35.88;;
62724;SDS011;49026;52.600;4.694;2023-06-22T00:42:58;113.38;;;37.00;;
62724;SDS011;49026;52.600;4.694;2023-06-22T00:45:24;107.57;;;36.00;;
62724;SDS011;49026;52.600;4.694;2023-06-22T00:47:53;125.97;;;38.17;;
62724;SDS011;49026;52.600;4.694;2023-06-22T00:50:23;123.15;;;37.78;;
62724;SDS011;49026;52.600;4.694;2023-06-22T00:52:53;143.05;;;38.80;;
62724;SDS011;49026;52.600;4.694;2023-06-22T00:55:25;106.95;;;36.10;;
62724;SDS011;49026;52.600;4.694;2023-06-22T00:57:51;98.68;;;33.38;;
62724;SDS011;49026;52.600;4.694;2023-06-22T01:00:21;91.10;;;32.13;;
62724;SDS011;49026;52.600;4.694;2023-06-22T01:02:49;95.57;;;32.40;;
62724;SDS011;49026;52.600;4.694;2023-06-22T01:05:18;101.00;;;34.17;;
62724;SDS011;49026;52.600;4.694;2023-06-22T01:07:49;97.10;;;33.15;;
62724;SDS011;49026;52.600;4.694;2023-06-22T01:12:45;96.55;;;33.70;;
62724;SDS011;49026;52.600;4.694;2023-06-22T01:15:28;109.80;;;35.22;;
62724;SDS011;49026;52.600;4.694;2023-06-22T01:18:00;108.45;;;35.83;;
62724;SDS011;49026;52.600;4.694;2023-06-22T01:20:30;105.95;;;34.92;;
62724;SDS011;49026;52.600;4.694;2023-06-22T01:26:17;81.97;;;29.20;;
62724;SDS011;49026;52.600;4.694;2023-06-22T01:28:50;69.25;;;26.48;;
62724;SDS011;49026;52.600;4.694;2023-06-22T01:31:21;90.63;;;30.15;;
62724;SDS011;49026;52.600;4.694;2023-06-22T01:33:55;89.35;;;30.90;;
62724;SDS011;49026;52.600;4.694;2023-06-22T01:36:23;86.75;;;29.08;;
62724;SDS011;49026;52.600;4.694;2023-06-22T01:38:50;82.25;;;28.48;;
62724;SDS011;49026;52.600;4.694;2023-06-22T01:41:17;85.65;;;31.00;;
62724;SDS011;49026;52.600;4.694;2023-06-22T01:43:42;82.68;;;28.98;;
62724;SDS011;49026;52.600;4.694;2023-06-22T01:46:09;76.78;;;27.40;;
62724;SDS011;49026;52.600;4.694;2023-06-22T01:48:36;91.07;;;28.88;;
62724;SDS011;49026;52.600;4.694;2023-06-22T01:51:04;93.50;;;30.42;;
62724;SDS011;49026;52.600;4.694;2023-06-22T01:53:29;92.18;;;29.27;;
62724;SDS011;49026;52.600;4.694;2023-06-22T01:55:55;82.57;;;29.52;;
62724;SDS011;49026;52.600;4.694;2023-06-22T01:58:21;90.07;;;29.73;;
62724;SDS011;49026;52.600;4.694;2023-06-22T02:00:51;81.38;;;28.77;;
62724;SDS011;49026;52.600;4.694;2023-06-22T02:03:23;87.38;;;28.95;;
62724;SDS011;49026;52.600;4.694;2023-06-22T02:05:56;75.53;;;26.73;;
62724;SDS011;49026;52.600;4.694;2023-06-22T02:08:30;80.20;;;25.50;;
62724;SDS011;49026;52.600;4.694;2023-06-22T02:11:00;77.75;;;27.17;;
62724;SDS011;49026;52.600;4.694;2023-06-22T02:13:28;78.70;;;26.75;;
62724;SDS011;49026;52.600;4.694;2023-06-22T02:15:53;76.40;;;26.25;;
62724;SDS011;49026;52.600;4.694;2023-06-22T02:18:19;72.40;;;25.33;;
62724;SDS011;49026;52.600;4.694;2023-06-22T02:20:45;72.72;;;25.88;;
62724;SDS011;49026;52.600;4.694;2023-06-22T02:23:11;72.15;;;24.35;;
62724;SDS011;49026;52.600;4.694;2023-06-22T02:25:36;57.25;;;23.70;;
62724;SDS011;49026;52.600;4.694;2023-06-22T02:28:02;63.35;;;23.35;;
62724;SDS011;49026;52.600;4.694;2023-06-22T02:30:28;62.33;;;21.52;;
62724;SDS011;49026;52.600;4.694;2023-06-22T02:32:53;74.50;;;24.70;;
62724;SDS011;49026;52.600;4.694;2023-06-22T02:35:26;71.65;;;23.98;;
62724;SDS011;49026;52.600;4.694;2023-06-22T02:37:52;72.65;;;23.77;;
62724;SDS011;49026;52.600;4.694;2023-06-22T02:40:17;65.18;;;23.08;;
62724;SDS011;49026;52.600;4.694;2023-06-22T02:42:42;65.60;;;22.60;;
62724;SDS011;49026;52.600;4.694;2023-06-22T02:45:08;68.63;;;23.60;;
62724;SDS011;49026;52.600;4.694;2023-06-22T02:47:34;79.80;;;24.83;;
62724;SDS011;49026;52.600;4.694;2023-06-22T02:49:59;60.72;;;22.42;;
62724;SDS011;49026;52.600;4.694;2023-06-22T02:52:25;71.75;;;23.50;;
62724;SDS011;49026;52.600;4.694;2023-06-22T02:54:50;66.93;;;23.15;;
62724;SDS011;49026;52.600;4.694;2023-06-22T02:57:16;76.53;;;25.25;;
62724;SDS011;49026;52.600;4.694;2023-06-22T02:59:41;75.60;;;25.05;;
62724;SDS011;49026;52.600;4.694;2023-06-22T03:02:07;75.03;;;25.85;;
62724;SDS011;49026;52.600;4.694;2023-06-22T03:04:34;70.85;;;23.63;;
62724;SDS011;49026;52.600;4.694;2023-06-22T03:06:59;72.72;;;22.17;;
62724;SDS011;49026;52.600;4.694;2023-06-22T03:09:26;68.07;;;21.60;;
62724;SDS011;49026;52.600;4.694;2023-06-22T03:11:55;83.93;;;24.53;;
62724;SDS011;49026;52.600;4.694;2023-06-22T03:14:21;75.53;;;24.35;;
62724;SDS011;49026;52.600;4.694;2023-06-22T03:16:46;70.45;;;23.08;;
62724;SDS011;49026;52.600;4.694;2023-06-22T03:19:12;67.00;;;22.52;;
62724;SDS011;49026;52.600;4.694;2023-06-22T03:21:38;64.22;;;22.05;;
62724;SDS011;49026;52.600;4.694;2023-06-22T03:24:05;60.92;;;21.17;;
62724;SDS011;49026;52.600;4.694;2023-06-22T03:26:31;80.13;;;24.50;;
62724;SDS011;49026;52.600;4.694;2023-06-22T03:28:56;83.43;;;25.02;;
62724;SDS011;49026;52.600;4.694;2023-06-22T03:31:22;78.03;;;24.23;;
62724;SDS011;49026;52.600;4.694;2023-06-22T03:33:48;78.70;;;23.38;;
62724;SDS011;49026;52.600;4.694;2023-06-22T03:36:15;75.35;;;24.73;;
62724;SDS011;49026;52.600;4.694;2023-06-22T03:38:49;68.82;;;24.05;;
62724;SDS011;49026;52.600;4.694;2023-06-22T03:41:16;83.90;;;25.80;;
62724;SDS011;49026;52.600;4.694;2023-06-22T03:43:42;68.53;;;24.00;;
62724;SDS011;49026;52.600;4.694;2023-06-22T03:46:07;79.05;;;24.60;;
62724;SDS011;49026;52.600;4.694;2023-06-22T03:48:32;93.13;;;26.88;;
62724;SDS011;49026;52.600;4.694;2023-06-22T03:51:01;81.30;;;26.70;;
62724;SDS011;49026;52.600;4.694;2023-06-22T03:53:28;75.63;;;24.85;;
62724;SDS011;49026;52.600;4.694;2023-06-22T03:55:53;79.28;;;26.27;;
62724;SDS011;49026;52.600;4.694;2023-06-22T03:58:19;100.95;;;29.10;;
62724;SDS011;49026;52.600;4.694;2023-06-22T04:00:46;74.55;;;26.40;;
62724;SDS011;49026;52.600;4.694;2023-06-22T04:03:12;68.00;;;25.38;;
62724;SDS011;49026;52.600;4.694;2023-06-22T04:05:39;70.03;;;24.85;;
62724;SDS011;49026;52.600;4.694;2023-06-22T04:08:05;66.32;;;23.67;;
62724;SDS011;49026;52.600;4.694;2023-06-22T04:10:30;64.50;;;27.25;;
62724;SDS011;49026;52.600;4.694;2023-06-22T04:12:55;61.13;;;25.80;;
62724;SDS011;49026;52.600;4.694;2023-06-22T04:15:21;48.92;;;24.70;;
62724;SDS011;49026;52.600;4.694;2023-06-22T04:17:46;52.13;;;24.90;;
62724;SDS011;49026;52.600;4.694;2023-06-22T04:20:12;50.08;;;24.60;;
62724;SDS011;49026;52.600;4.694;2023-06-22T04:22:37;50.95;;;24.77;;
62724;SDS011;49026;52.600;4.694;2023-06-22T04:25:02;49.65;;;26.17;;
62724;SDS011;49026;52.600;4.694;2023-06-22T04:27:28;42.95;;;23.88;;
62724;SDS011;49026;52.600;4.694;2023-06-22T04:29:53;44.58;;;24.90;;
62724;SDS011;49026;52.600;4.694;2023-06-22T04:32:19;42.83;;;22.83;;
62724;SDS011;49026;52.600;4.694;2023-06-22T04:34:44;34.13;;;20.83;;
62724;SDS011;49026;52.600;4.694;2023-06-22T04:37:09;39.05;;;22.48;;
62724;SDS011;49026;52.600;4.694;2023-06-22T04:39:40;31.35;;;20.13;;
62724;SDS011;49026;52.600;4.694;2023-06-22T04:42:06;33.03;;;20.85;;
62724;SDS011;49026;52.600;4.694;2023-06-22T04:44:31;36.38;;;20.67;;
62724;SDS011;49026;52.600;4.694;2023-06-22T04:46:57;32.40;;;20.13;;
62724;SDS011;49026;52.600;4.694;2023-06-22T04:49:29;32.08;;;19.90;;
62724;SDS011;49026;52.600;4.694;2023-06-22T04:51:58;27.23;;;17.58;;
62724;SDS011;49026;52.600;4.694;2023-06-22T04:54:24;30.75;;;19.27;;
62724;SDS011;49026;52.600;4.694;2023-06-22T04:56:49;29.13;;;18.50;;
62724;SDS011;49026;52.600;4.694;2023-06-22T04:59:22;27.00;;;18.88;;
62724;SDS011;49026;52.600;4.694;2023-06-22T05:02:00;27.50;;;17.50;;
62724;SDS011;49026;52.600;4.694;2023-06-22T05:04:27;29.80;;;18.17;;
62724;SDS011;49026;52.600;4.694;2023-06-22T05:06:56;26.90;;;18.20;;
62724;SDS011;49026;52.600;4.694;2023-06-22T05:09:22;26.20;;;17.38;;
62724;SDS011;49026;52.600;4.694;2023-06-22T05:11:48;27.38;;;17.85;;
62724;SDS011;49026;52.600;4.694;2023-06-22T05:14:14;28.02;;;18.65;;
62724;SDS011;49026;52.600;4.694;2023-06-22T05:16:40;23.80;;;16.05;;
62724;SDS011;49026;52.600;4.694;2023-06-22T05:19:07;24.65;;;17.13;;
62724;SDS011;49026;52.600;4.694;2023-06-22T05:21:32;25.73;;;18.08;;
62724;SDS011;49026;52.600;4.694;2023-06-22T05:23:58;27.13;;;18.35;;
62724;SDS011;49026;52.600;4.694;2023-06-22T05:26:29;26.73;;;17.50;;
62724;SDS011;49026;52.600;4.694;2023-06-22T05:28:55;25.35;;;17.10;;
62724;SDS011;49026;52.600;4.694;2023-06-22T05:31:20;25.65;;;18.50;;
62724;SDS011;49026;52.600;4.694;2023-06-22T05:33:46;30.40;;;17.73;;
62724;SDS011;49026;52.600;4.694;2023-06-22T05:36:13;32.72;;;18.75;;
62724;SDS011;49026;52.600;4.694;2023-06-22T05:38:39;26.23;;;17.65;;
62724;SDS011;49026;52.600;4.694;2023-06-22T05:41:05;28.67;;;17.98;;
62724;SDS011;49026;52.600;4.694;2023-06-22T05:43:30;23.98;;;18.02;;
62724;SDS011;49026;52.600;4.694;2023-06-22T05:45:56;29.67;;;17.90;;
62724;SDS011;49026;52.600;4.694;2023-06-22T05:48:22;29.02;;;19.20;;
62724;SDS011;49026;52.600;4.694;2023-06-22T05:50:48;30.88;;;19.35;;
62724;SDS011;49026;52.600;4.694;2023-06-22T05:53:13;27.40;;;19.00;;
62724;SDS011;49026;52.600;4.694;2023-06-22T05:55:38;30.83;;;21.15;;
62724;SDS011;49026;52.600;4.694;2023-06-22T05:58:04;34.03;;;21.80;;
62724;SDS011;49026;52.600;4.694;2023-06-22T06:00:30;37.60;;;20.20;;
62724;SDS011;49026;52.600;4.694;2023-06-22T06:02:55;30.23;;;19.35;;
62724;SDS011;49026;52.600;4.694;2023-06-22T06:05:20;32.00;;;19.67;;
62724;SDS011;49026;52.600;4.694;2023-06-22T06:07:46;31.23;;;18.52;;
62724;SDS011;49026;52.600;4.694;2023-06-22T06:10:11;29.92;;;20.65;;
62724;SDS011;49026;52.600;4.694;2023-06-22T06:12:38;30.65;;;20.73;;
62724;SDS011;49026;52.600;4.694;2023-06-22T06:15:03;31.20;;;20.73;;
62724;SDS011;49026;52.600;4.694;2023-06-22T06:17:29;29.15;;;20.80;;
62724;SDS011;49026;52.600;4.694;2023-06-22T06:19:55;32.42;;;21.35;;
62724;SDS011;49026;52.600;4.694;2023-06-22T06:22:20;34.30;;;22.15;;
62724;SDS011;49026;52.600;4.694;2023-06-22T06:24:47;33.38;;;22.45;;
62724;SDS011;49026;52.600;4.694;2023-06-22T06:27:13;31.08;;;20.63;;
62724;SDS011;49026;52.600;4.694;2023-06-22T06:29:38;31.80;;;22.00;;
62724;SDS011;49026;52.600;4.694;2023-06-22T06:32:04;33.10;;;21.42;;
62724;SDS011;49026;52.600;4.694;2023-06-22T06:34:29;37.67;;;22.25;;
62724;SDS011;49026;52.600;4.694;2023-06-22T06:36:55;33.65;;;22.38;;
62724;SDS011;49026;52.600;4.694;2023-06-22T06:39:20;29.13;;;21.70;;
62724;SDS011;49026;52.600;4.694;2023-06-22T06:41:46;33.30;;;22.38;;
62724;SDS011;49026;52.600;4.694;2023-06-22T06:44:11;32.83;;;22.00;;
62724;SDS011;49026;52.600;4.694;2023-06-22T06:46:37;37.28;;;20.15;;
62724;SDS011;49026;52.600;4.694;2023-06-22T06:49:03;29.25;;;19.60;;
62724;SDS011;49026;52.600;4.694;2023-06-22T06:51:28;30.67;;;19.63;;
62724;SDS011;49026;52.600;4.694;2023-06-22T06:53:54;28.35;;;18.88;;
62724;SDS011;49026;52.600;4.694;2023-06-22T06:56:19;28.27;;;18.75;;
62724;SDS011;49026;52.600;4.694;2023-06-22T06:58:45;28.45;;;18.42;;
62724;SDS011;49026;52.600;4.694;2023-06-22T07:01:11;28.77;;;19.60;;
62724;SDS011;49026;52.600;4.694;2023-06-22T07:03:37;26.08;;;17.60;;
62724;SDS011;49026;52.600;4.694;2023-06-22T07:06:03;25.80;;;17.73;;
62724;SDS011;49026;52.600;4.694;2023-06-22T07:08:29;21.67;;;14.40;;
62724;SDS011;49026;52.600;4.694;2023-06-22T07:10:54;25.02;;;16.92;;
62724;SDS011;49026;52.600;4.694;2023-06-22T07:15:59;25.40;;;15.55;;
62724;SDS011;49026;52.600;4.694;2023-06-22T07:18:24;21.23;;;15.15;;
62724;SDS011;49026;52.600;4.694;2023-06-22T07:20:52;24.23;;;15.98;;
62724;SDS011;49026;52.600;4.694;2023-06-22T07:23:17;22.45;;;15.95;;
62724;SDS011;49026;52.600;4.694;2023-06-22T07:25:43;24.02;;;14.38;;
62724;SDS011;49026;52.600;4.694;2023-06-22T07:28:09;20.90;;;15.45;;
62724;SDS011;49026;52.600;4.694;2023-06-22T07:30:36;18.83;;;13.00;;
62724;SDS011;49026;52.600;4.694;2023-06-22T07:33:02;25.38;;;15.00;;
62724;SDS011;49026;52.600;4.694;2023-06-22T07:35:31;19.10;;;12.52;;
62724;SDS011;49026;52.600;4.694;2023-06-22T07:37:57;18.65;;;11.75;;
62724;SDS011;49026;52.600;4.694;2023-06-22T07:40:22;18.10;;;12.55;;
62724;SDS011;49026;52.600;4.694;2023-06-22T07:42:48;19.75;;;12.43;;
62724;SDS011;49026;52.600;4.694;2023-06-22T07:45:13;21.10;;;13.13;;
62724;SDS011;49026;52.600;4.694;2023-06-22T07:47:38;14.68;;;10.55;;
62724;SDS011;49026;52.600;4.694;2023-06-22T07:50:04;15.93;;;8.68;;
62724;SDS011;49026;52.600;4.694;2023-06-22T07:52:30;19.15;;;11.85;;
62724;SDS011;49026;52.600;4.694;2023-06-22T07:54:56;15.73;;;11.63;;
62724;SDS011;49026;52.600;4.694;2023-06-22T07:57:21;12.80;;;7.90;;
62724;SDS011;49026;52.600;4.694;2023-06-22T07:59:57;18.20;;;12.35;;
62724;SDS011;49026;52.600;4.694;2023-06-22T08:02:25;17.98;;;12.13;;
62724;SDS011;49026;52.600;4.694;2023-06-22T08:04:51;15.15;;;11.35;;
62724;SDS011;49026;52.600;4.694;2023-06-22T08:07:16;17.92;;;11.68;;
62724;SDS011;49026;52.600;4.694;2023-06-22T08:09:46;16.20;;;10.82;;
62724;SDS011;49026;52.600;4.694;2023-06-22T08:12:13;16.85;;;9.90;;
62724;SDS011;49026;52.600;4.694;2023-06-22T08:14:43;19.27;;;9.88;;
62724;SDS011;49026;52.600;4.694;2023-06-22T08:17:11;14.23;;;9.95;;
62724;SDS011;49026;52.600;4.694;2023-06-22T08:19:36;14.80;;;9.15;;
62724;SDS011;49026;52.600;4.694;2023-06-22T08:22:02;15.27;;;8.80;;
62724;SDS011;49026;52.600;4.694;2023-06-22T08:24:29;24.17;;;9.27;;
62724;SDS011;49026;52.600;4.694;2023-06-22T08:26:55;16.23;;;9.90;;
62724;SDS011;49026;52.600;4.694;2023-06-22T08:29:21;12.75;;;8.95;;
62724;SDS011;49026;52.600;4.694;2023-06-22T08:31:46;14.85;;;9.23;;
62724;SDS011;49026;52.600;4.694;2023-06-22T08:34:14;14.93;;;10.02;;
62724;SDS011;49026;52.600;4.694;2023-06-22T08:36:39;14.55;;;9.38;;
62724;SDS011;49026;52.600;4.694;2023-06-22T08:39:08;11.83;;;8.37;;
62724;SDS011;49026;52.600;4.694;2023-06-22T08:41:33;14.95;;;9.07;;
62724;SDS011;49026;52.600;4.694;2023-06-22T08:44:01;13.93;;;9.55;;
62724;SDS011;49026;52.600;4.694;2023-06-22T08:46:27;16.88;;;10.30;;
62724;SDS011;49026;52.600;4.694;2023-06-22T08:48:56;16.77;;;10.27;;
62724;SDS011;49026;52.600;4.694;2023-06-22T08:51:22;15.55;;;9.15;;
62724;SDS011;49026;52.600;4.694;2023-06-22T08:53:48;16.70;;;10.80;;
62724;SDS011;49026;52.600;4.694;2023-06-22T08:56:13;17.65;;;11.13;;
62724;SDS011;49026;52.600;4.694;2023-06-22T08:58:38;16.23;;;11.00;;
62724;SDS011;49026;52.600;4.694;2023-06-22T09:01:04;16.38;;;10.32;;
62724;SDS011;49026;52.600;4.694;2023-06-22T09:03:29;13.38;;;9.80;;
62724;SDS011;49026;52.600;4.694;2023-06-22T09:06:00;15.15;;;10.60;;
62724;SDS011;49026;52.600;4.694;2023-06-22T09:08:25;15.50;;;11.10;;
62724;SDS011;49026;52.600;4.694;2023-06-22T09:10:50;11.20;;;8.60;;
62724;SDS011;49026;52.600;4.694;2023-06-22T09:13:17;17.20;;;8.88;;
62724;SDS011;49026;52.600;4.694;2023-06-22T09:15:45;16.90;;;9.48;;
62724;SDS011;49026;52.600;4.694;2023-06-22T09:18:10;14.82;;;9.43;;
62724;SDS011;49026;52.600;4.694;2023-06-22T09:20:38;15.77;;;10.15;;
62724;SDS011;49026;52.600;4.694;2023-06-22T09:23:05;14.57;;;9.55;;
62724;SDS011;49026;52.600;4.694;2023-06-22T09:25:31;15.00;;;8.52;;
62724;SDS011;49026;52.600;4.694;2023-06-22T09:27:56;13.80;;;7.50;;
62724;SDS011;49026;52.600;4.694;2023-06-22T09:30:21;9.65;;;5.53;;
62724;SDS011;49026;52.600;4.694;2023-06-22T09:32:47;13.35;;;7.30;;
62724;SDS011;49026;52.600;4.694;2023-06-22T09:35:12;15.43;;;7.40;;
62724;SDS011;49026;52.600;4.694;2023-06-22T09:37:40;11.35;;;7.35;;
62724;SDS011;49026;52.600;4.694;2023-06-22T09:40:06;11.77;;;7.68;;
62724;SDS011;49026;52.600;4.694;2023-06-22T09:42:36;14.43;;;7.03;;
62724;SDS011;49026;52.600;4.694;2023-06-22T09:45:01;12.90;;;7.32;;
62724;SDS011;49026;52.600;4.694;2023-06-22T09:47:27;13.23;;;7.20;;
62724;SDS011;49026;52.600;4.694;2023-06-22T09:49:56;13.10;;;7.10;;
62724;SDS011;49026;52.600;4.694;2023-06-22T09:52:24;8.00;;;5.55;;
62724;SDS011;49026;52.600;4.694;2023-06-22T09:54:49;11.57;;;7.28;;
62724;SDS011;49026;52.600;4.694;2023-06-22T09:57:15;15.95;;;8.05;;
62724;SDS011;49026;52.600;4.694;2023-06-22T09:59:40;10.88;;;7.25;;
62724;SDS011;49026;52.600;4.694;2023-06-22T10:02:06;10.45;;;6.95;;
62724;SDS011;49026;52.600;4.694;2023-06-22T10:04:32;14.02;;;7.07;;
62724;SDS011;49026;52.600;4.694;2023-06-22T10:06:57;10.48;;;6.60;;
62724;SDS011;49026;52.600;4.694;2023-06-22T10:09:23;9.35;;;5.88;;
62724;SDS011;49026;52.600;4.694;2023-06-22T10:11:48;7.90;;;5.82;;
62724;SDS011;49026;52.600;4.694;2023-06-22T10:14:13;12.20;;;6.65;;
62724;SDS011;49026;52.600;4.694;2023-06-22T10:16:39;9.77;;;5.65;;
62724;SDS011;49026;52.600;4.694;2023-06-22T10:19:06;12.98;;;6.93;;
62724;SDS011;49026;52.600;4.694;2023-06-22T10:21:31;12.02;;;6.30;;
62724;SDS011;49026;52.600;4.694;2023-06-22T10:23:57;8.73;;;5.35;;
62724;SDS011;49026;52.600;4.694;2023-06-22T10:26:24;9.10;;;4.85;;
62724;SDS011;49026;52.600;4.694;2023-06-22T10:28:49;7.72;;;4.88;;
62724;SDS011;49026;52.600;4.694;2023-06-22T10:31:15;14.20;;;5.93;;
62724;SDS011;49026;52.600;4.694;2023-06-22T10:33:41;11.40;;;6.57;;
62724;SDS011;49026;52.600;4.694;2023-06-22T10:36:08;13.13;;;6.93;;
62724;SDS011;49026;52.600;4.694;2023-06-22T10:38:37;11.30;;;6.50;;
62724;SDS011;49026;52.600;4.694;2023-06-22T10:41:02;8.75;;;5.72;;
62724;SDS011;49026;52.600;4.694;2023-06-22T10:43:27;8.55;;;4.47;;
62724;SDS011;49026;52.600;4.694;2023-06-22T10:45:55;8.13;;;4.65;;
62724;SDS011;49026;52.600;4.694;2023-06-22T10:48:20;10.40;;;5.30;;
62724;SDS011;49026;52.600;4.694;2023-06-22T10:50:46;9.95;;;5.78;;
62724;SDS011;49026;52.600;4.694;2023-06-22T10:53:12;8.90;;;5.35;;
62724;SDS011;49026;52.600;4.694;2023-06-22T10:55:37;12.73;;;5.40;;
62724;SDS011;49026;52.600;4.694;2023-06-22T10:58:02;10.07;;;6.25;;
62724;SDS011;49026;52.600;4.694;2023-06-22T11:00:28;10.93;;;6.10;;
62724;SDS011;49026;52.600;4.694;2023-06-22T11:02:53;10.57;;;5.22;;
62724;SDS011;49026;52.600;4.694;2023-06-22T11:05:19;11.05;;;6.28;;
62724;SDS011;49026;52.600;4.694;2023-06-22T11:07:44;10.53;;;6.07;;
62724;SDS011;49026;52.600;4.694;2023-06-22T11:10:10;11.40;;;6.63;;
62724;SDS011;49026;52.600;4.694;2023-06-22T11:12:35;12.32;;;6.53;;
62724;SDS011;49026;52.600;4.694;2023-06-22T11:15:01;11.10;;;6.25;;
62724;SDS011;49026;52.600;4.694;2023-06-22T11:17:29;9.45;;;5.85;;
62724;SDS011;49026;52.600;4.694;2023-06-22T11:19:54;9.90;;;6.93;;
62724;SDS011;49026;52.600;4.694;2023-06-22T11:22:19;10.65;;;6.18;;
62724;SDS011;49026;52.600;4.694;2023-06-22T11:24:45;10.40;;;5.72;;
62724;SDS011;49026;52.600;4.694;2023-06-22T11:27:10;6.20;;;3.70;;
62724;SDS011;49026;52.600;4.694;2023-06-22T11:29:35;8.63;;;5.07;;
62724;SDS011;49026;52.600;4.694;2023-06-22T11:32:03;6.88;;;5.30;;
62724;SDS011;49026;52.600;4.694;2023-06-22T11:34:29;12.80;;;6.78;;
62724;SDS011;49026;52.600;4.694;2023-06-22T11:36:54;12.00;;;6.03;;
62724;SDS011;49026;52.600;4.694;2023-06-22T11:39:20;7.00;;;4.90;;
62724;SDS011;49026;52.600;4.694;2023-06-22T11:41:45;7.38;;;4.68;;
62724;SDS011;49026;52.600;4.694;2023-06-22T11:44:10;6.68;;;3.83;;
62724;SDS011;49026;52.600;4.694;2023-06-22T11:46:36;9.75;;;5.13;;
62724;SDS011;49026;52.600;4.694;2023-06-22T11:49:04;6.65;;;4.15;;
62724;SDS011;49026;52.600;4.694;2023-06-22T11:51:29;7.70;;;4.53;;
62724;SDS011;49026;52.600;4.694;2023-06-22T11:53:56;8.57;;;4.63;;
62724;SDS011;49026;52.600;4.694;2023-06-22T11:56:22;8.40;;;5.53;;
62724;SDS011;49026;52.600;4.694;2023-06-22T11:58:49;10.52;;;5.85;;
62724;SDS011;49026;52.600;4.694;2023-06-22T12:01:14;8.65;;;5.35;;
62724;SDS011;49026;52.600;4.694;2023-06-22T12:03:42;12.88;;;5.15;;
62724;SDS011;49026;52.600;4.694;2023-06-22T12:06:09;8.85;;;4.78;;
62724;SDS011;49026;52.600;4.694;2023-06-22T12:08:34;8.35;;;4.53;;
62724;SDS011;49026;52.600;4.694;2023-06-22T12:11:02;10.40;;;5.82;;
62724;SDS011;49026;52.600;4.694;2023-06-22T12:13:27;8.98;;;5.80;;
62724;SDS011;49026;52.600;4.694;2023-06-22T12:15:52;8.68;;;4.93;;
62724;SDS011;49026;52.600;4.694;2023-06-22T12:18:18;8.82;;;5.40;;
62724;SDS011;49026;52.600;4.694;2023-06-22T12:20:48;11.52;;;7.13;;
62724;SDS011;49026;52.600;4.694;2023-06-22T12:23:14;10.88;;;7.00;;
62724;SDS011;49026;52.600;4.694;2023-06-22T12:25:39;11.63;;;6.05;;
62724;SDS011;49026;52.600;4.694;2023-06-22T12:28:09;10.85;;;6.43;;
62724;SDS011;49026;52.600;4.694;2023-06-22T12:30:35;13.25;;;7.32;;
62724;SDS011;49026;52.600;4.694;2023-06-22T12:33:02;9.82;;;6.35;;
62724;SDS011;49026;52.600;4.694;2023-06-22T12:35:27;11.15;;;6.90;;
62724;SDS011;49026;52.600;4.694;2023-06-22T12:37:53;10.15;;;6.30;;
62724;SDS011;49026;52.600;4.694;2023-06-22T12:40:18;10.65;;;6.35;;
62724;SDS011;49026;52.600;4.694;2023-06-22T12:42:46;10.55;;;5.95;;
62724;SDS011;49026;52.600;4.694;2023-06-22T12:45:11;7.47;;;4.88;;
62724;SDS011;49026;52.600;4.694;2023-06-22T12:47:36;9.68;;;5.72;;
62724;SDS011;49026;52.600;4.694;2023-06-22T12:50:02;9.60;;;5.35;;
62724;SDS011;49026;52.600;4.694;2023-06-22T12:52:29;8.38;;;6.10;;
62724;SDS011;49026;52.600;4.694;2023-06-22T12:54:57;10.30;;;5.38;;
62724;SDS011;49026;52.600;4.694;2023-06-22T12:57:22;10.60;;;5.40;;
62724;SDS011;49026;52.600;4.694;2023-06-22T12:59:48;10.52;;;6.10;;
62724;SDS011;49026;52.600;4.694;2023-06-22T13:02:14;8.65;;;4.97;;
62724;SDS011;49026;52.600;4.694;2023-06-22T13:04:39;8.27;;;4.78;;
62724;SDS011;49026;52.600;4.694;2023-06-22T13:07:10;9.90;;;5.00;;
62724;SDS011;49026;52.600;4.694;2023-06-22T13:09:36;12.43;;;5.63;;
62724;SDS011;49026;52.600;4.694;2023-06-22T13:12:04;9.18;;;5.18;;
62724;SDS011;49026;52.600;4.694;2023-06-22T13:14:32;7.90;;;5.28;;
62724;SDS011;49026;52.600;4.694;2023-06-22T13:16:57;7.95;;;4.38;;
62724;SDS011;49026;52.600;4.694;2023-06-22T13:19:23;8.65;;;5.70;;
62724;SDS011;49026;52.600;4.694;2023-06-22T13:21:48;10.73;;;5.80;;
62724;SDS011;49026;52.600;4.694;2023-06-22T13:24:13;9.73;;;5.25;;
62724;SDS011;49026;52.600;4.694;2023-06-22T13:26:42;11.25;;;6.88;;
62724;SDS011;49026;52.600;4.694;2023-06-22T13:29:08;10.38;;;6.45;;
62724;SDS011;49026;52.600;4.694;2023-06-22T13:31:35;9.82;;;6.38;;
62724;SDS011;49026;52.600;4.694;2023-06-22T13:34:00;9.13;;;5.55;;
62724;SDS011;49026;52.600;4.694;2023-06-22T13:36:26;10.45;;;5.75;;
62724;SDS011;49026;52.600;4.694;2023-06-22T13:38:51;9.50;;;4.82;;
62724;SDS011;49026;52.600;4.694;2023-06-22T13:41:19;7.88;;;4.60;;
62724;SDS011;49026;52.600;4.694;2023-06-22T13:43:44;8.45;;;4.70;;
62724;SDS011;49026;52.600;4.694;2023-06-22T13:46:12;8.18;;;4.75;;
62724;SDS011;49026;52.600;4.694;2023-06-22T13:48:37;6.82;;;4.65;;
62724;SDS011;49026;52.600;4.694;2023-06-22T13:51:02;9.18;;;5.07;;
62724;SDS011;49026;52.600;4.694;2023-06-22T13:53:28;9.73;;;4.90;;
62724;SDS011;49026;52.600;4.694;2023-06-22T13:55:53;9.55;;;5.70;;
62724;SDS011;49026;52.600;4.694;2023-06-22T13:58:21;10.18;;;5.32;;
62724;SDS011;49026;52.600;4.694;2023-06-22T14:00:48;8.13;;;5.15;;
62724;SDS011;49026;52.600;4.694;2023-06-22T14:03:14;8.27;;;5.25;;
62724;SDS011;49026;52.600;4.694;2023-06-22T14:05:42;8.25;;;5.20;;
62724;SDS011;49026;52.600;4.694;2023-06-22T14:08:07;8.32;;;4.68;;
62724;SDS011;49026;52.600;4.694;2023-06-22T14:10:34;8.80;;;4.82;;
62724;SDS011;49026;52.600;4.694;2023-06-22T14:12:59;10.05;;;5.20;;
62724;SDS011;49026;52.600;4.694;2023-06-22T14:15:25;7.22;;;4.57;;
62724;SDS011;49026;52.600;4.694;2023-06-22T14:17:50;8.57;;;4.28;;
62724;SDS011;49026;52.600;4.694;2023-06-22T14:20:16;7.05;;;4.25;;
62724;SDS011;49026;52.600;4.694;2023-06-22T14:22:41;6.40;;;3.45;;
62724;SDS011;49026;52.600;4.694;2023-06-22T14:25:07;5.53;;;3.58;;
62724;SDS011;49026;52.600;4.694;2023-06-22T14:27:32;6.55;;;3.75;;
62724;SDS011;49026;52.600;4.694;2023-06-22T14:29:58;7.88;;;3.53;;
62724;SDS011;49026;52.600;4.694;2023-06-22T14:32:23;5.05;;;2.95;;
62724;SDS011;49026;52.600;4.694;2023-06-22T14:34:51;5.72;;;2.85;;